createdAt,value
2023-04-27T00:02:44.545Z,82.15
2023-04-27T00:05:57.312Z,83.21
2023-04-27T00:09:10.103Z,82.71
2023-04-27T00:12:22.615Z,83.83
2023-04-27T00:15:35.056Z,83.57
2023-04-27T00:18:47.131Z,83.87
2023-04-27T00:22:00.661Z,83.83
2023-04-27T00:25:14.968Z,83.75
2023-04-27T00:28:27.550Z,84.63
2023-04-27T00:31:39.690Z,84.81
2023-04-27T00:34:52.480Z,85.06
2023-04-27T00:38:04.580Z,85.46
2023-04-27T00:41:18.644Z,86.31
2023-04-27T00:44:34.715Z,86.03
2023-04-27T00:47:48.762Z,86.55
2023-04-27T00:51:01.175Z,86.27
2023-04-27T00:54:13.713Z,86.67
2023-04-27T00:57:26.631Z,86.69
2023-04-27T01:00:41.882Z,86.86
2023-04-27T01:03:55.132Z,86.95
2023-04-27T01:07:08.455Z,87.27
2023-04-27T01:10:20.675Z,87.09
2023-04-27T01:13:33.272Z,87.69
2023-04-27T01:16:47.551Z,87.46
2023-04-27T01:20:02.744Z,87.77
2023-04-27T01:23:16.770Z,87.89
2023-04-27T01:26:28.964Z,88.32
2023-04-27T01:29:41.451Z,88.32
2023-04-27T01:32:54.775Z,88.35
2023-04-27T01:36:07.241Z,88.47
2023-04-27T01:39:19.306Z,88.35
2023-04-27T01:42:31.450Z,88.19
2023-04-27T01:45:43.599Z,87.99
2023-04-27T01:48:55.657Z,88.12
2023-04-27T01:52:08.160Z,88.12
2023-04-27T01:55:20.621Z,88.09
2023-04-27T01:58:34.022Z,87.94
2023-04-27T02:01:46.274Z,87.90
2023-04-27T02:04:58.745Z,88.13
2023-04-27T02:08:11.953Z,88.88
2023-04-27T02:11:24.257Z,89.46
2023-04-27T02:14:36.383Z,89.42
2023-04-27T02:17:48.648Z,89.83
2023-04-27T02:21:01.106Z,90.26
2023-04-27T02:24:15.547Z,90.58
2023-04-27T02:27:29.978Z,90.71
2023-04-27T02:30:44.923Z,91.28
2023-04-27T02:33:58.151Z,91.77
2023-04-27T02:37:10.685Z,92.06
2023-04-27T02:40:22.986Z,92.61
2023-04-27T02:43:35.145Z,92.52
2023-04-27T02:46:49.347Z,92.83
2023-04-27T02:50:02.209Z,93.04
2023-04-27T02:53:16.743Z,93.43
2023-04-27T02:56:28.961Z,93.58
2023-04-27T02:59:41.193Z,93.67
2023-04-27T03:02:53.716Z,94.00
2023-04-27T03:06:06.121Z,94.19
2023-04-27T03:09:18.412Z,94.17
2023-04-27T03:12:30.686Z,94.66
2023-04-27T03:15:46.069Z,94.51
2023-04-27T03:18:58.217Z,94.63
2023-04-27T03:22:10.586Z,94.74
2023-04-27T03:25:22.946Z,94.85
2023-04-27T03:28:35.295Z,94.68
2023-04-27T03:31:47.593Z,94.76
2023-04-27T03:34:59.765Z,95.07
2023-04-27T03:38:11.982Z,95.12
2023-04-27T03:41:24.153Z,95.16
2023-04-27T03:44:37.701Z,95.03
2023-04-27T03:47:50.048Z,95.12
2023-04-27T03:51:03.784Z,95.70
2023-04-27T03:54:16.103Z,95.49
2023-04-27T03:57:28.254Z,95.19
2023-04-27T04:00:41.106Z,95.01
2023-04-27T04:03:53.546Z,94.84
2023-04-27T04:07:06.226Z,94.66
2023-04-27T04:10:19.163Z,94.43
2023-04-27T04:13:33.205Z,94.24
2023-04-27T04:16:45.415Z,93.90
2023-04-27T04:19:58.532Z,92.84
2023-04-27T04:23:12.482Z,92.51
2023-04-27T04:26:25.094Z,92.22
2023-04-27T04:29:37.816Z,92.01
2023-04-27T04:32:50.149Z,91.86
2023-04-27T04:36:03.473Z,92.17
2023-04-27T04:39:16.778Z,91.42
2023-04-27T04:42:29.527Z,91.26
2023-04-27T04:45:42.357Z,90.96
2023-04-27T04:48:55.379Z,91.17
2023-04-27T04:52:08.344Z,90.15
2023-04-27T04:55:20.764Z,91.06
2023-04-27T04:58:32.824Z,90.06
2023-04-27T05:01:45.152Z,89.54
2023-04-27T05:04:57.958Z,89.12
2023-04-27T05:08:11.151Z,88.45
2023-04-27T05:11:23.470Z,88.17
2023-04-27T05:14:35.603Z,87.73
2023-04-27T05:17:47.881Z,88.12
2023-04-27T05:21:00.028Z,87.49
2023-04-27T05:24:13.524Z,85.90
2023-04-27T05:27:25.668Z,84.39
2023-04-27T05:30:37.939Z,84.75
2023-04-27T05:33:50.352Z,84.07
2023-04-27T05:37:02.558Z,84.44
2023-04-27T05:40:17.375Z,83.23
2023-04-27T05:43:30.205Z,83.65
2023-04-27T05:46:43.171Z,83.27
2023-04-27T05:49:59.398Z,83.50
2023-04-27T05:53:12.027Z,82.28
2023-04-27T05:56:24.404Z,82.02
2023-04-27T05:59:36.564Z,80.97
2023-04-27T06:02:48.957Z,80.07
2023-04-27T06:06:04.912Z,80.04
2023-04-27T06:09:17.011Z,79.31
2023-04-27T06:12:29.219Z,77.98
2023-04-27T06:15:41.766Z,75.71
2023-04-27T06:18:56.633Z,74.68
2023-04-27T06:22:08.773Z,73.29
2023-04-27T06:25:20.815Z,70.85
2023-04-27T06:28:34.211Z,69.04
2023-04-27T06:31:47.610Z,69.20
2023-04-27T06:34:59.809Z,65.72
2023-04-27T06:38:12.622Z,64.84
2023-04-27T06:41:24.809Z,62.61
2023-04-27T06:44:36.877Z,61.09
2023-04-27T06:47:49.271Z,59.73
2023-04-27T06:51:01.603Z,58.99
2023-04-27T06:54:14.516Z,59.68
2023-04-27T06:57:27.381Z,58.69
2023-04-27T07:00:40.508Z,56.33
2023-04-27T07:03:53.089Z,54.82
2023-04-27T07:07:05.946Z,54.90
2023-04-27T07:10:18.557Z,53.43
2023-04-27T07:13:30.984Z,52.74
2023-04-27T07:16:44.526Z,54.02
2023-04-27T07:19:56.688Z,50.37
2023-04-27T07:23:09.342Z,50.22
2023-04-27T07:26:21.759Z,49.29
2023-04-27T07:29:34.310Z,50.07
2023-04-27T07:32:48.474Z,50.42
2023-04-27T07:36:02.347Z,52.95
2023-04-27T07:39:15.053Z,52.97
2023-04-27T07:42:28.009Z,53.49
2023-04-27T07:45:41.867Z,52.89
2023-04-27T07:48:55.582Z,50.37
2023-04-27T07:52:08.712Z,51.42
2023-04-27T07:55:21.745Z,51.62
2023-04-27T07:58:33.847Z,54.26
2023-04-27T08:01:45.947Z,53.98
2023-04-27T08:04:58.938Z,58.58
2023-04-27T08:08:11.962Z,55.69
2023-04-27T08:11:24.140Z,56.43
2023-04-27T08:14:36.749Z,56.66
2023-04-27T08:17:49.374Z,57.50
2023-04-27T08:21:01.925Z,59.71
2023-04-27T08:24:15.001Z,58.42
2023-04-27T08:27:27.182Z,56.78
2023-04-27T08:30:39.755Z,55.27
2023-04-27T08:33:52.633Z,54.38
2023-04-27T08:37:04.737Z,54.50
2023-04-27T08:40:20.128Z,53.73
2023-04-27T08:43:39.907Z,52.83
2023-04-27T08:46:52.220Z,54.07
2023-04-27T08:50:05.826Z,54.89
2023-04-27T08:53:27.028Z,57.09
2023-04-27T08:56:39.778Z,56.63
2023-04-27T09:00:06.497Z,59.47
2023-04-27T09:03:29.049Z,57.23
2023-04-27T09:06:42.054Z,56.05
2023-04-27T09:09:54.740Z,56.54
2023-04-27T09:13:07.749Z,54.26
2023-04-27T09:16:21.218Z,51.06
2023-04-27T09:19:36.772Z,47.99
2023-04-27T09:22:55.294Z,44.35
2023-04-27T09:26:09.915Z,43.01
2023-04-27T09:29:22.145Z,44.47
2023-04-27T09:32:34.420Z,45.58
2023-04-27T09:35:48.322Z,48.47
2023-04-27T09:39:01.159Z,49.31
2023-04-27T09:42:16.084Z,45.42
2023-04-27T09:45:29.172Z,45.95
2023-04-27T09:48:43.236Z,46.41
2023-04-27T09:51:56.243Z,50.48
2023-04-27T09:55:13.543Z,50.03
2023-04-27T09:59:07.964Z,55.39
2023-04-27T10:02:25.602Z,55.99
2023-04-27T10:06:01.392Z,56.37
2023-04-27T10:09:15.311Z,57.29
2023-04-27T10:12:32.713Z,53.79
2023-04-27T10:15:45.403Z,50.54
2023-04-27T10:19:02.707Z,51.45
2023-04-27T10:22:17.186Z,49.47
2023-04-27T10:25:33.442Z,51.63
2023-04-27T10:28:48.606Z,48.65
2023-04-27T10:32:00.874Z,46.62
2023-04-27T10:35:15.045Z,46.77
2023-04-27T10:38:33.430Z,43.95
2023-04-27T10:41:55.431Z,42.93
2023-04-27T10:45:08.409Z,41.76
2023-04-27T10:48:22.032Z,44.99
2023-04-27T10:51:34.367Z,40.93
2023-04-27T10:54:51.360Z,41.62
2023-04-27T10:58:02.600Z,44.41
2023-04-27T11:01:14.954Z,49.98
2023-04-27T11:04:27.996Z,45.46
2023-04-27T11:07:40.312Z,46.50
2023-04-27T11:10:54.847Z,47.74
2023-04-27T11:14:08.256Z,44.74
2023-04-27T11:17:21.018Z,46.59
2023-04-27T11:20:34.130Z,49.62
2023-04-27T11:23:47.366Z,48.56
2023-04-27T11:27:04.450Z,51.90
2023-04-27T11:30:27.474Z,53.81
2023-04-27T11:33:40.033Z,55.07
2023-04-27T11:40:24.479Z,57.82
2023-04-27T11:43:35.099Z,57.36
2023-04-27T11:46:50.849Z,57.17
2023-04-27T11:50:05.194Z,56.70
2023-04-27T11:53:18.817Z,58.55
2023-04-27T11:56:35.261Z,58.05
2023-04-27T11:59:47.710Z,56.45
2023-04-27T12:02:59.903Z,59.07
2023-04-27T12:06:31.856Z,55.54
2023-04-27T12:09:26.890Z,56.10
2023-04-27T12:12:39.101Z,55.18
2023-04-27T12:15:51.303Z,56.61
2023-04-27T12:19:03.921Z,53.30
2023-04-27T12:22:16.573Z,51.42
2023-04-27T12:25:29.273Z,49.96
2023-04-27T12:28:41.720Z,48.29
2023-04-27T12:31:54.113Z,47.99
2023-04-27T12:35:06.593Z,48.25
2023-04-27T12:38:18.617Z,47.64
2023-04-27T12:41:31.005Z,47.07
2023-04-27T12:44:43.174Z,47.09
2023-04-27T12:48:03.559Z,47.28
2023-04-27T12:54:13.368Z,48.26
2023-04-27T12:57:26.949Z,48.75
2023-04-27T13:00:39.451Z,48.23
2023-04-27T13:03:53.596Z,48.37
2023-04-27T13:07:06.738Z,49.85
2023-04-27T13:10:19.284Z,50.87
2023-04-27T13:13:32.046Z,51.17
2023-04-27T13:16:44.844Z,53.52
2023-04-27T13:19:57.167Z,55.21
2023-04-27T13:23:11.332Z,57.21
2023-04-27T13:26:24.423Z,56.08
2023-04-27T13:29:36.650Z,56.18
2023-04-27T13:32:49.497Z,56.70
2023-04-27T13:36:02.754Z,54.79
2023-04-27T13:39:15.122Z,53.61
2023-04-27T13:42:29.887Z,52.68
2023-04-27T13:45:42.882Z,50.18
2023-04-27T13:48:54.945Z,48.69
2023-04-27T13:52:08.743Z,47.84
2023-04-27T13:55:23.480Z,49.47
2023-04-27T14:07:38.678Z,51.34
2023-04-27T14:10:53.331Z,52.92
2023-04-27T14:14:07.072Z,55.07
2023-04-27T14:17:19.260Z,54.91
2023-04-27T14:20:31.932Z,54.15
2023-04-27T14:56:15.274Z,61.32
2023-04-27T14:59:27.486Z,58.52
2023-04-27T15:02:40.045Z,62.25
2023-04-27T15:05:52.392Z,59.30
2023-04-27T15:09:04.825Z,56.34
2023-04-27T15:12:17.954Z,55.06
2023-04-27T15:15:30.572Z,54.81
2023-04-27T15:18:43.474Z,55.74
2023-04-27T15:21:55.671Z,55.27
2023-04-27T15:25:08.781Z,53.74
2023-04-27T15:28:20.975Z,54.09
2023-04-27T15:31:33.152Z,53.89
2023-04-27T15:34:46.292Z,52.26
2023-04-27T15:37:59.481Z,52.66
2023-04-27T15:41:12.321Z,55.21
2023-04-27T15:44:24.448Z,54.48
2023-04-27T15:47:36.752Z,54.80
2023-04-27T15:50:53.364Z,53.50
2023-04-27T15:54:06.849Z,54.74
2023-04-27T15:57:19.463Z,52.91
2023-04-27T16:00:32.289Z,52.66
2023-04-27T16:03:44.567Z,52.73
2023-04-27T16:06:57.034Z,52.44
2023-04-27T16:10:11.552Z,53.04
2023-04-27T16:13:24.076Z,52.58
2023-04-27T16:16:36.258Z,52.93
2023-04-27T16:19:49.635Z,52.79
2023-04-27T16:23:01.835Z,53.63
2023-04-27T16:26:14.033Z,53.28
2023-04-27T16:29:26.268Z,54.48
2023-04-27T16:32:38.483Z,55.02
2023-04-27T16:35:50.962Z,54.45
2023-04-27T16:39:05.263Z,56.59
2023-04-27T16:42:19.650Z,54.02
2023-04-27T16:45:31.766Z,56.94
2023-04-27T16:48:44.206Z,56.35
2023-04-27T16:51:57.218Z,57.14
2023-04-27T16:55:11.980Z,57.07
2023-04-27T17:01:24.890Z,59.00
2023-04-27T17:04:40.435Z,59.72
2023-04-27T17:07:53.534Z,60.39
2023-04-27T17:11:07.448Z,59.27
2023-04-27T17:14:20.911Z,60.59
2023-04-27T17:17:39.204Z,60.61
2023-04-27T17:20:51.580Z,59.44
2023-04-27T17:24:03.986Z,62.29
2023-04-27T17:27:16.680Z,61.86
2023-04-27T17:30:29.131Z,61.48
2023-04-27T17:33:43.824Z,61.24
2023-04-27T17:36:57.088Z,61.37
2023-04-27T17:40:11.189Z,63.48
2023-04-27T17:43:23.282Z,66.88
2023-04-27T17:46:35.465Z,65.41
2023-04-27T17:49:47.694Z,67.55
2023-04-27T17:52:59.923Z,66.47
2023-04-27T17:56:13.141Z,65.77
2023-04-27T17:59:25.474Z,66.86
2023-04-27T18:02:45.282Z,69.67
2023-04-27T18:05:57.821Z,68.61
2023-04-27T18:09:10.557Z,68.90
2023-04-27T18:12:22.863Z,68.03
2023-04-27T18:15:35.140Z,67.22
2023-04-27T18:18:47.588Z,65.98
2023-04-27T18:21:59.756Z,67.29
2023-04-27T18:25:14.700Z,67.49
2023-04-27T18:28:26.770Z,69.15
2023-04-27T18:31:38.880Z,68.88
2023-04-27T18:34:50.990Z,69.07
2023-04-27T18:38:03.804Z,70.41
2023-04-27T18:41:16.524Z,69.51
2023-04-27T18:44:28.777Z,71.58
2023-04-27T18:47:41.015Z,71.72
2023-04-27T18:50:53.354Z,74.25
2023-04-27T18:57:18.571Z,74.52
2023-04-27T19:00:32.229Z,74.67
2023-04-27T19:03:45.507Z,77.08
2023-04-27T19:06:57.788Z,73.73
2023-04-27T19:10:13.974Z,73.68
2023-04-27T19:13:26.282Z,71.64
2023-04-27T19:16:38.672Z,71.67
2023-04-27T19:19:51.412Z,71.64
2023-04-27T19:23:03.633Z,73.50
2023-04-27T19:26:15.873Z,72.54
2023-04-27T19:29:30.806Z,73.59
2023-04-27T19:32:43.938Z,76.20
2023-04-27T19:35:58.497Z,78.35
2023-04-27T19:39:11.487Z,78.80
2023-04-27T19:42:25.258Z,78.19
2023-04-27T19:45:38.997Z,79.57
2023-04-27T19:48:51.508Z,80.31
2023-04-27T19:52:04.032Z,80.20
2023-04-27T19:55:17.667Z,77.32
2023-04-27T19:58:29.842Z,76.88
2023-04-27T20:01:42.455Z,83.10
2023-04-27T20:04:54.994Z,86.48
2023-04-27T20:08:08.008Z,87.65
2023-04-27T20:11:20.922Z,87.99
2023-04-27T20:14:35.426Z,89.51
2023-04-27T20:17:47.822Z,88.72
2023-04-27T20:21:03.427Z,88.98
2023-04-27T20:24:16.628Z,88.85
2023-04-27T20:27:29.471Z,88.49
2023-04-27T20:30:41.397Z,88.66
2023-04-27T20:33:54.051Z,89.92
2023-04-27T20:37:06.210Z,88.83
2023-04-27T20:40:21.949Z,88.89
2023-04-27T20:43:34.095Z,88.22
2023-04-27T20:46:46.484Z,89.64
2023-04-27T20:49:58.580Z,89.74
2023-04-27T20:53:10.690Z,90.60
2023-04-27T20:56:23.179Z,91.33
2023-04-27T20:59:35.671Z,90.96
2023-04-27T21:02:48.701Z,90.24
2023-04-27T21:06:01.030Z,91.04
2023-04-27T21:09:13.304Z,90.84
2023-04-27T21:12:25.654Z,91.51
2023-04-27T21:15:37.989Z,92.44
2023-04-27T21:18:50.163Z,92.64
2023-04-27T21:22:02.686Z,94.24
2023-04-27T21:25:16.527Z,93.15
2023-04-27T21:28:28.642Z,93.77
2023-04-27T21:31:41.176Z,93.16
2023-04-27T21:34:53.266Z,93.81
2023-04-27T21:38:05.667Z,94.00
2023-04-27T21:41:17.777Z,92.93
2023-04-27T21:44:29.966Z,93.43
2023-04-27T21:47:42.399Z,92.93
2023-04-27T21:50:54.790Z,94.10
2023-04-27T21:54:06.865Z,95.15
2023-04-27T21:57:20.034Z,94.85
2023-04-27T22:00:33.730Z,93.99
2023-04-27T22:03:46.034Z,94.34
2023-04-27T22:06:58.396Z,94.91
2023-04-27T22:10:12.341Z,95.11
2023-04-27T22:13:24.439Z,95.55
2023-04-27T22:16:36.913Z,97.02
2023-04-27T22:19:49.402Z,95.99
2023-04-27T22:23:01.769Z,95.91
2023-04-27T22:26:14.018Z,95.51
2023-04-27T22:29:26.091Z,97.57
2023-04-27T22:32:38.534Z,97.09
2023-04-27T22:35:51.009Z,96.29
2023-04-27T22:39:03.288Z,96.87
2023-04-27T22:42:15.432Z,96.79
2023-04-27T22:45:27.419Z,97.64
2023-04-27T22:48:39.562Z,97.64
2023-04-27T22:51:51.848Z,98.24
2023-04-27T22:55:03.944Z,97.52
2023-04-27T22:58:15.873Z,97.67
2023-04-27T23:01:27.832Z,99.40
2023-04-27T23:04:41.476Z,99.78
2023-04-27T23:07:54.104Z,100.00
2023-04-27T23:11:06.400Z,100.00
2023-04-27T23:14:18.514Z,100.00
2023-04-27T23:17:32.032Z,100.00
2023-04-27T23:20:44.270Z,100.00
2023-04-27T23:23:56.320Z,99.94
2023-04-27T23:27:08.283Z,98.73
2023-04-27T23:30:21.292Z,96.72
2023-04-27T23:33:33.799Z,95.61
2023-04-27T23:36:45.967Z,95.58
2023-04-27T23:39:57.905Z,98.05
2023-04-27T23:43:10.500Z,98.50
2023-04-27T23:46:22.695Z,97.76
2023-04-27T23:49:34.776Z,96.31
2023-04-27T23:52:46.732Z,96.84
2023-04-27T23:55:58.845Z,96.48
2023-04-27T23:59:11.363Z,96.25
